sensor_id;sensor_type;location;lat;lon;timestamp;P1;durP1;ratioP1;P2;durP2;ratioP2
22005;SDS011;11167;46.988;15.470;2023-04-29T00:01:05;7.53;;;4.95;;
22005;SDS011;11167;46.988;15.470;2023-04-29T00:03:06;5.65;;;5.00;;
22005;SDS011;11167;46.988;15.470;2023-04-29T00:05:07;6.75;;;4.97;;
22005;SDS011;11167;46.988;15.470;2023-04-29T00:07:09;6.05;;;4.85;;
22005;SDS011;11167;46.988;15.470;2023-04-29T00:09:10;5.62;;;5.00;;
22005;SDS011;11167;46.988;15.470;2023-04-29T00:11:11;6.42;;;5.00;;
22005;SDS011;11167;46.988;15.470;2023-04-29T00:13:12;5.50;;;4.87;;
22005;SDS011;11167;46.988;15.470;2023-04-29T00:15:13;6.10;;;4.90;;
22005;SDS011;11167;46.988;15.470;2023-04-29T00:17:14;6.00;;;5.15;;
22005;SDS011;11167;46.988;15.470;2023-04-29T00:19:17;5.60;;;4.65;;
22005;SDS011;11167;46.988;15.470;2023-04-29T00:23:38;5.55;;;4.92;;
22005;SDS011;11167;46.988;15.470;2023-04-29T00:25:40;6.58;;;4.92;;
22005;SDS011;11167;46.988;15.470;2023-04-29T00:27:41;5.75;;;4.85;;
22005;SDS011;11167;46.988;15.470;2023-04-29T00:29:42;6.80;;;4.58;;
22005;SDS011;11167;46.988;15.470;2023-04-29T00:31:43;5.60;;;4.90;;
22005;SDS011;11167;46.988;15.470;2023-04-29T00:33:45;6.78;;;4.85;;
22005;SDS011;11167;46.988;15.470;2023-04-29T00:35:46;6.20;;;4.70;;
22005;SDS011;11167;46.988;15.470;2023-04-29T00:37:48;5.03;;;4.50;;
22005;SDS011;11167;46.988;15.470;2023-04-29T00:39:49;5.83;;;4.80;;
22005;SDS011;11167;46.988;15.470;2023-04-29T00:41:51;6.17;;;4.50;;
22005;SDS011;11167;46.988;15.470;2023-04-29T00:43:52;7.03;;;4.53;;
22005;SDS011;11167;46.988;15.470;2023-04-29T00:45:53;5.50;;;4.80;;
22005;SDS011;11167;46.988;15.470;2023-04-29T00:47:54;5.25;;;4.75;;
22005;SDS011;11167;46.988;15.470;2023-04-29T00:49:56;5.10;;;4.58;;
22005;SDS011;11167;46.988;15.470;2023-04-29T00:51:57;6.00;;;4.83;;
22005;SDS011;11167;46.988;15.470;2023-04-29T00:53:58;5.17;;;4.47;;
22005;SDS011;11167;46.988;15.470;2023-04-29T00:56:00;5.00;;;4.50;;
22005;SDS011;11167;46.988;15.470;2023-04-29T00:58:02;6.10;;;4.47;;
22005;SDS011;11167;46.988;15.470;2023-04-29T01:00:04;5.87;;;4.70;;
22005;SDS011;11167;46.988;15.470;2023-04-29T01:02:06;5.03;;;4.10;;
22005;SDS011;11167;46.988;15.470;2023-04-29T01:04:07;4.60;;;4.10;;
22005;SDS011;11167;46.988;15.470;2023-04-29T01:08:49;5.15;;;4.50;;
22005;SDS011;11167;46.988;15.470;2023-04-29T01:10:54;4.70;;;4.20;;
22005;SDS011;11167;46.988;15.470;2023-04-29T01:13:05;4.75;;;4.08;;
22005;SDS011;11167;46.988;15.470;2023-04-29T01:17:21;4.67;;;4.22;;
22005;SDS011;11167;46.988;15.470;2023-04-29T01:21:47;4.70;;;4.12;;
22005;SDS011;11167;46.988;15.470;2023-04-29T01:23:49;4.92;;;4.40;;
22005;SDS011;11167;46.988;15.470;2023-04-29T01:25:55;4.85;;;4.17;;
22005;SDS011;11167;46.988;15.470;2023-04-29T01:38:02;5.47;;;4.40;;
22005;SDS011;11167;46.988;15.470;2023-04-29T01:40:22;5.25;;;4.62;;
22005;SDS011;11167;46.988;15.470;2023-04-29T01:42:47;4.95;;;4.45;;
22005;SDS011;11167;46.988;15.470;2023-04-29T01:45:07;5.95;;;4.53;;
22005;SDS011;11167;46.988;15.470;2023-04-29T01:47:08;4.87;;;4.45;;
22005;SDS011;11167;46.988;15.470;2023-04-29T01:49:12;6.12;;;4.53;;
22005;SDS011;11167;46.988;15.470;2023-04-29T01:51:13;4.83;;;4.30;;
22005;SDS011;11167;46.988;15.470;2023-04-29T01:53:15;5.03;;;4.15;;
22005;SDS011;11167;46.988;15.470;2023-04-29T01:55:17;5.70;;;4.42;;
22005;SDS011;11167;46.988;15.470;2023-04-29T01:57:18;5.15;;;4.20;;
22005;SDS011;11167;46.988;15.470;2023-04-29T01:59:20;5.92;;;4.65;;
22005;SDS011;11167;46.988;15.470;2023-04-29T02:01:21;5.12;;;4.58;;
22005;SDS011;11167;46.988;15.470;2023-04-29T02:03:22;5.55;;;4.55;;
22005;SDS011;11167;46.988;15.470;2023-04-29T02:05:23;5.80;;;4.53;;
22005;SDS011;11167;46.988;15.470;2023-04-29T02:07:24;5.42;;;4.65;;
22005;SDS011;11167;46.988;15.470;2023-04-29T02:09:25;4.83;;;4.33;;
22005;SDS011;11167;46.988;15.470;2023-04-29T02:11:26;4.72;;;4.20;;
22005;SDS011;11167;46.988;15.470;2023-04-29T02:13:27;5.33;;;4.35;;
22005;SDS011;11167;46.988;15.470;2023-04-29T02:15:28;4.87;;;4.37;;
22005;SDS011;11167;46.988;15.470;2023-04-29T02:17:29;4.65;;;4.17;;
22005;SDS011;11167;46.988;15.470;2023-04-29T02:19:32;5.20;;;3.92;;
22005;SDS011;11167;46.988;15.470;2023-04-29T02:21:33;5.22;;;4.62;;
22005;SDS011;11167;46.988;15.470;2023-04-29T02:23:35;4.72;;;4.22;;
22005;SDS011;11167;46.988;15.470;2023-04-29T02:25:36;4.45;;;4.03;;
22005;SDS011;11167;46.988;15.470;2023-04-29T02:27:38;5.08;;;4.33;;
22005;SDS011;11167;46.988;15.470;2023-04-29T02:29:39;4.62;;;4.22;;
22005;SDS011;11167;46.988;15.470;2023-04-29T02:31:40;5.05;;;4.42;;
22005;SDS011;11167;46.988;15.470;2023-04-29T02:33:41;4.10;;;3.70;;
22005;SDS011;11167;46.988;15.470;2023-04-29T02:35:42;4.87;;;4.03;;
22005;SDS011;11167;46.988;15.470;2023-04-29T02:37:44;4.75;;;4.30;;
22005;SDS011;11167;46.988;15.470;2023-04-29T02:39:46;4.37;;;3.98;;
22005;SDS011;11167;46.988;15.470;2023-04-29T02:41:47;4.35;;;3.95;;
22005;SDS011;11167;46.988;15.470;2023-04-29T02:43:48;4.70;;;4.20;;
22005;SDS011;11167;46.988;15.470;2023-04-29T02:45:49;4.42;;;4.03;;
22005;SDS011;11167;46.988;15.470;2023-04-29T02:47:50;4.55;;;4.15;;
22005;SDS011;11167;46.988;15.470;2023-04-29T02:49:53;5.30;;;4.03;;
22005;SDS011;11167;46.988;15.470;2023-04-29T02:51:54;4.42;;;4.03;;
22005;SDS011;11167;46.988;15.470;2023-04-29T02:53:55;5.40;;;4.60;;
22005;SDS011;11167;46.988;15.470;2023-04-29T02:55:56;4.80;;;4.30;;
22005;SDS011;11167;46.988;15.470;2023-04-29T02:57:57;4.58;;;4.17;;
22005;SDS011;11167;46.988;15.470;2023-04-29T02:59:58;4.85;;;4.25;;
22005;SDS011;11167;46.988;15.470;2023-04-29T03:02:00;4.78;;;4.28;;
22005;SDS011;11167;46.988;15.470;2023-04-29T03:04:01;4.67;;;4.17;;
22005;SDS011;11167;46.988;15.470;2023-04-29T03:06:03;4.75;;;4.17;;
22005;SDS011;11167;46.988;15.470;2023-04-29T03:08:04;5.78;;;4.30;;
22005;SDS011;11167;46.988;15.470;2023-04-29T03:10:06;4.95;;;4.20;;
22005;SDS011;11167;46.988;15.470;2023-04-29T03:12:08;5.20;;;4.40;;
22005;SDS011;11167;46.988;15.470;2023-04-29T03:14:09;4.87;;;4.12;;
22005;SDS011;11167;46.988;15.470;2023-04-29T03:16:11;5.53;;;4.22;;
22005;SDS011;11167;46.988;15.470;2023-04-29T03:18:16;5.80;;;4.33;;
22005;SDS011;11167;46.988;15.470;2023-04-29T03:20:17;4.60;;;4.20;;
22005;SDS011;11167;46.988;15.470;2023-04-29T03:22:18;4.37;;;3.70;;
22005;SDS011;11167;46.988;15.470;2023-04-29T03:24:20;5.03;;;3.90;;
22005;SDS011;11167;46.988;15.470;2023-04-29T03:26:21;4.42;;;4.03;;
22005;SDS011;11167;46.988;15.470;2023-04-29T03:28:23;4.83;;;4.05;;
22005;SDS011;11167;46.988;15.470;2023-04-29T03:30:24;5.33;;;4.40;;
22005;SDS011;11167;46.988;15.470;2023-04-29T03:32:25;4.17;;;3.77;;
22005;SDS011;11167;46.988;15.470;2023-04-29T03:34:26;4.35;;;3.90;;
22005;SDS011;11167;46.988;15.470;2023-04-29T03:36:29;5.08;;;4.30;;
22005;SDS011;11167;46.988;15.470;2023-04-29T03:38:30;4.33;;;3.92;;
22005;SDS011;11167;46.988;15.470;2023-04-29T03:40:31;5.15;;;4.45;;
22005;SDS011;11167;46.988;15.470;2023-04-29T03:42:32;5.12;;;4.40;;
22005;SDS011;11167;46.988;15.470;2023-04-29T03:44:33;4.80;;;4.17;;
22005;SDS011;11167;46.988;15.470;2023-04-29T03:46:36;5.40;;;4.17;;
22005;SDS011;11167;46.988;15.470;2023-04-29T03:48:37;5.20;;;4.12;;
22005;SDS011;11167;46.988;15.470;2023-04-29T03:50:38;4.50;;;3.95;;
22005;SDS011;11167;46.988;15.470;2023-04-29T03:52:39;4.45;;;4.03;;
22005;SDS011;11167;46.988;15.470;2023-04-29T03:54:40;7.37;;;4.33;;
22005;SDS011;11167;46.988;15.470;2023-04-29T03:56:41;5.20;;;4.17;;
22005;SDS011;11167;46.988;15.470;2023-04-29T03:58:43;4.62;;;3.72;;
22005;SDS011;11167;46.988;15.470;2023-04-29T04:00:44;4.70;;;3.92;;
22005;SDS011;11167;46.988;15.470;2023-04-29T04:02:45;4.33;;;3.92;;
22005;SDS011;11167;46.988;15.470;2023-04-29T04:04:46;5.10;;;3.92;;
22005;SDS011;11167;46.988;15.470;2023-04-29T04:06:47;4.58;;;4.17;;
22005;SDS011;11167;46.988;15.470;2023-04-29T04:08:50;4.33;;;3.90;;
22005;SDS011;11167;46.988;15.470;2023-04-29T04:10:51;3.92;;;3.60;;
22005;SDS011;11167;46.988;15.470;2023-04-29T04:12:53;4.87;;;4.37;;
22005;SDS011;11167;46.988;15.470;2023-04-29T04:14:55;4.35;;;3.83;;
22005;SDS011;11167;46.988;15.470;2023-04-29T04:16:57;4.62;;;4.17;;
22005;SDS011;11167;46.988;15.470;2023-04-29T04:18:58;4.83;;;4.20;;
22005;SDS011;11167;46.988;15.470;2023-04-29T04:21:03;5.00;;;4.20;;
22005;SDS011;11167;46.988;15.470;2023-04-29T04:23:08;6.03;;;4.50;;
22005;SDS011;11167;46.988;15.470;2023-04-29T04:25:09;5.67;;;4.40;;
22005;SDS011;11167;46.988;15.470;2023-04-29T04:27:10;6.47;;;4.92;;
22005;SDS011;11167;46.988;15.470;2023-04-29T04:29:12;5.37;;;4.35;;
22005;SDS011;11167;46.988;15.470;2023-04-29T04:31:13;5.40;;;4.50;;
22005;SDS011;11167;46.988;15.470;2023-04-29T04:33:14;4.55;;;4.12;;
22005;SDS011;11167;46.988;15.470;2023-04-29T04:35:16;5.22;;;4.28;;
22005;SDS011;11167;46.988;15.470;2023-04-29T04:37:17;6.72;;;4.53;;
22005;SDS011;11167;46.988;15.470;2023-04-29T04:39:19;4.95;;;4.45;;
22005;SDS011;11167;46.988;15.470;2023-04-29T04:41:20;4.58;;;4.12;;
22005;SDS011;11167;46.988;15.470;2023-04-29T04:43:21;5.30;;;4.45;;
22005;SDS011;11167;46.988;15.470;2023-04-29T04:45:22;5.30;;;4.35;;
22005;SDS011;11167;46.988;15.470;2023-04-29T04:47:23;4.70;;;4.20;;
22005;SDS011;11167;46.988;15.470;2023-04-29T04:49:24;4.97;;;4.25;;
22005;SDS011;11167;46.988;15.470;2023-04-29T04:51:26;4.67;;;4.00;;
22005;SDS011;11167;46.988;15.470;2023-04-29T04:53:28;5.50;;;4.87;;
22005;SDS011;11167;46.988;15.470;2023-04-29T04:55:29;6.33;;;4.40;;
22005;SDS011;11167;46.988;15.470;2023-04-29T04:57:33;5.40;;;4.55;;
22005;SDS011;11167;46.988;15.470;2023-04-29T04:59:34;5.05;;;4.50;;
22005;SDS011;11167;46.988;15.470;2023-04-29T05:01:36;4.50;;;4.10;;
22005;SDS011;11167;46.988;15.470;2023-04-29T05:03:37;5.08;;;4.37;;
22005;SDS011;11167;46.988;15.470;2023-04-29T05:05:38;5.72;;;4.58;;
22005;SDS011;11167;46.988;15.470;2023-04-29T05:07:39;5.80;;;4.08;;
22005;SDS011;11167;46.988;15.470;2023-04-29T05:09:40;5.40;;;4.72;;
22005;SDS011;11167;46.988;15.470;2023-04-29T05:11:41;5.55;;;4.42;;
22005;SDS011;11167;46.988;15.470;2023-04-29T05:13:42;4.95;;;4.47;;
22005;SDS011;11167;46.988;15.470;2023-04-29T05:15:44;5.37;;;4.78;;
22005;SDS011;11167;46.988;15.470;2023-04-29T05:17:45;4.83;;;4.37;;
22005;SDS011;11167;46.988;15.470;2023-04-29T05:19:46;5.30;;;4.80;;
22005;SDS011;11167;46.988;15.470;2023-04-29T05:21:47;5.85;;;5.22;;
22005;SDS011;11167;46.988;15.470;2023-04-29T05:23:48;5.45;;;4.85;;
22005;SDS011;11167;46.988;15.470;2023-04-29T05:25:49;9.23;;;5.75;;
22005;SDS011;11167;46.988;15.470;2023-04-29T05:27:50;6.72;;;5.55;;
22005;SDS011;11167;46.988;15.470;2023-04-29T05:29:52;7.03;;;5.97;;
22005;SDS011;11167;46.988;15.470;2023-04-29T05:31:53;7.08;;;5.85;;
22005;SDS011;11167;46.988;15.470;2023-04-29T05:33:54;6.28;;;5.65;;
22005;SDS011;11167;46.988;15.470;2023-04-29T05:35:56;6.60;;;5.80;;
22005;SDS011;11167;46.988;15.470;2023-04-29T05:37:57;6.00;;;5.37;;
22005;SDS011;11167;46.988;15.470;2023-04-29T05:39:58;6.80;;;5.28;;
22005;SDS011;11167;46.988;15.470;2023-04-29T05:41:59;7.12;;;5.15;;
22005;SDS011;11167;46.988;15.470;2023-04-29T05:44:01;7.40;;;5.90;;
22005;SDS011;11167;46.988;15.470;2023-04-29T05:46:02;7.15;;;5.50;;
22005;SDS011;11167;46.988;15.470;2023-04-29T05:48:04;6.75;;;5.40;;
22005;SDS011;11167;46.988;15.470;2023-04-29T05:50:05;6.12;;;5.22;;
22005;SDS011;11167;46.988;15.470;2023-04-29T05:52:07;6.15;;;5.15;;
22005;SDS011;11167;46.988;15.470;2023-04-29T05:54:08;7.58;;;4.75;;
22005;SDS011;11167;46.988;15.470;2023-04-29T05:56:09;5.55;;;4.80;;
22005;SDS011;11167;46.988;15.470;2023-04-29T05:58:11;6.15;;;4.87;;
22005;SDS011;11167;46.988;15.470;2023-04-29T06:00:15;5.10;;;4.60;;
22005;SDS011;11167;46.988;15.470;2023-04-29T06:02:16;5.20;;;4.55;;
22005;SDS011;11167;46.988;15.470;2023-04-29T06:04:18;5.15;;;4.40;;
22005;SDS011;11167;46.988;15.470;2023-04-29T06:06:19;4.50;;;4.10;;
22005;SDS011;11167;46.988;15.470;2023-04-29T06:08:20;5.60;;;4.33;;
22005;SDS011;11167;46.988;15.470;2023-04-29T06:10:21;5.97;;;4.60;;
22005;SDS011;11167;46.988;15.470;2023-04-29T06:12:22;4.90;;;4.40;;
22005;SDS011;11167;46.988;15.470;2023-04-29T06:14:23;5.62;;;4.62;;
22005;SDS011;11167;46.988;15.470;2023-04-29T06:16:25;4.75;;;4.15;;
22005;SDS011;11167;46.988;15.470;2023-04-29T06:18:26;4.97;;;4.40;;
22005;SDS011;11167;46.988;15.470;2023-04-29T06:20:28;4.58;;;4.17;;
22005;SDS011;11167;46.988;15.470;2023-04-29T06:22:29;4.70;;;4.15;;
22005;SDS011;11167;46.988;15.470;2023-04-29T06:24:30;4.75;;;4.28;;
22005;SDS011;11167;46.988;15.470;2023-04-29T06:26:31;5.42;;;4.45;;
22005;SDS011;11167;46.988;15.470;2023-04-29T06:28:32;4.20;;;3.75;;
22005;SDS011;11167;46.988;15.470;2023-04-29T06:30:33;4.92;;;4.12;;
22005;SDS011;11167;46.988;15.470;2023-04-29T06:32:34;4.53;;;3.90;;
22005;SDS011;11167;46.988;15.470;2023-04-29T06:34:37;4.42;;;3.98;;
22005;SDS011;11167;46.988;15.470;2023-04-29T06:36:39;5.40;;;4.05;;
22005;SDS011;11167;46.988;15.470;2023-04-29T06:38:41;4.58;;;4.17;;
22005;SDS011;11167;46.988;15.470;2023-04-29T06:40:42;4.30;;;3.90;;
22005;SDS011;11167;46.988;15.470;2023-04-29T06:42:43;4.97;;;4.10;;
22005;SDS011;11167;46.988;15.470;2023-04-29T06:44:45;5.37;;;4.28;;
22005;SDS011;11167;46.988;15.470;2023-04-29T06:46:46;4.60;;;4.08;;
22005;SDS011;11167;46.988;15.470;2023-04-29T06:48:47;5.67;;;4.30;;
22005;SDS011;11167;46.988;15.470;2023-04-29T06:50:49;4.33;;;3.80;;
22005;SDS011;11167;46.988;15.470;2023-04-29T06:52:51;5.70;;;4.25;;
22005;SDS011;11167;46.988;15.470;2023-04-29T06:54:54;8.48;;;4.55;;
22005;SDS011;11167;46.988;15.470;2023-04-29T06:56:55;6.45;;;4.40;;
22005;SDS011;11167;46.988;15.470;2023-04-29T06:58:57;7.25;;;4.55;;
22005;SDS011;11167;46.988;15.470;2023-04-29T07:00:58;6.85;;;4.83;;
22005;SDS011;11167;46.988;15.470;2023-04-29T07:03:00;6.78;;;4.72;;
22005;SDS011;11167;46.988;15.470;2023-04-29T07:05:01;6.62;;;4.87;;
22005;SDS011;11167;46.988;15.470;2023-04-29T07:07:02;7.92;;;4.80;;
22005;SDS011;11167;46.988;15.470;2023-04-29T07:09:03;7.15;;;4.40;;
22005;SDS011;11167;46.988;15.470;2023-04-29T07:11:05;6.47;;;4.47;;
22005;SDS011;11167;46.988;15.470;2023-04-29T07:13:06;8.53;;;4.95;;
22005;SDS011;11167;46.988;15.470;2023-04-29T07:15:07;5.35;;;4.30;;
22005;SDS011;11167;46.988;15.470;2023-04-29T07:17:08;7.10;;;4.20;;
22005;SDS011;11167;46.988;15.470;2023-04-29T07:19:10;7.25;;;4.53;;
22005;SDS011;11167;46.988;15.470;2023-04-29T07:21:11;6.10;;;4.00;;
22005;SDS011;11167;46.988;15.470;2023-04-29T07:23:13;7.58;;;4.80;;
22005;SDS011;11167;46.988;15.470;2023-04-29T07:25:15;6.45;;;4.08;;
22005;SDS011;11167;46.988;15.470;2023-04-29T07:27:16;6.83;;;4.10;;
22005;SDS011;11167;46.988;15.470;2023-04-29T07:29:17;5.45;;;4.17;;
22005;SDS011;11167;46.988;15.470;2023-04-29T07:31:18;4.58;;;3.58;;
22005;SDS011;11167;46.988;15.470;2023-04-29T07:33:20;5.75;;;3.75;;
22005;SDS011;11167;46.988;15.470;2023-04-29T07:35:21;4.87;;;3.70;;
22005;SDS011;11167;46.988;15.470;2023-04-29T07:37:22;4.33;;;3.12;;
22005;SDS011;11167;46.988;15.470;2023-04-29T07:39:23;4.92;;;3.40;;
22005;SDS011;11167;46.988;15.470;2023-04-29T07:41:25;4.87;;;3.30;;
22005;SDS011;11167;46.988;15.470;2023-04-29T07:43:26;6.35;;;3.67;;
22005;SDS011;11167;46.988;15.470;2023-04-29T07:45:27;5.22;;;3.50;;
22005;SDS011;11167;46.988;15.470;2023-04-29T07:47:29;3.95;;;3.40;;
22005;SDS011;11167;46.988;15.470;2023-04-29T07:49:31;5.17;;;3.33;;
22005;SDS011;11167;46.988;15.470;2023-04-29T07:51:32;4.28;;;3.17;;
22005;SDS011;11167;46.988;15.470;2023-04-29T07:53:33;4.22;;;2.98;;
22005;SDS011;11167;46.988;15.470;2023-04-29T07:55:35;7.58;;;3.58;;
22005;SDS011;11167;46.988;15.470;2023-04-29T07:57:37;4.13;;;3.10;;
22005;SDS011;11167;46.988;15.470;2023-04-29T07:59:38;3.77;;;3.10;;
22005;SDS011;11167;46.988;15.470;2023-04-29T08:01:39;4.50;;;3.25;;
22005;SDS011;11167;46.988;15.470;2023-04-29T08:03:41;4.12;;;2.90;;
22005;SDS011;11167;46.988;15.470;2023-04-29T08:05:42;4.55;;;3.08;;
22005;SDS011;11167;46.988;15.470;2023-04-29T08:07:44;4.62;;;3.02;;
22005;SDS011;11167;46.988;15.470;2023-04-29T08:09:48;4.03;;;2.95;;
22005;SDS011;11167;46.988;15.470;2023-04-29T08:14:03;4.25;;;3.10;;
22005;SDS011;11167;46.988;15.470;2023-04-29T08:16:04;3.85;;;2.92;;
22005;SDS011;11167;46.988;15.470;2023-04-29T08:18:06;3.83;;;2.90;;
22005;SDS011;11167;46.988;15.470;2023-04-29T08:20:07;4.28;;;3.10;;
22005;SDS011;11167;46.988;15.470;2023-04-29T08:22:08;4.00;;;3.00;;
22005;SDS011;11167;46.988;15.470;2023-04-29T08:24:11;4.12;;;3.15;;
22005;SDS011;11167;46.988;15.470;2023-04-29T08:26:13;3.70;;;2.50;;
22005;SDS011;11167;46.988;15.470;2023-04-29T08:28:14;3.90;;;2.72;;
22005;SDS011;11167;46.988;15.470;2023-04-29T08:30:15;3.27;;;2.65;;
22005;SDS011;11167;46.988;15.470;2023-04-29T08:32:17;3.65;;;2.70;;
22005;SDS011;11167;46.988;15.470;2023-04-29T08:34:18;3.92;;;2.58;;
22005;SDS011;11167;46.988;15.470;2023-04-29T08:36:19;3.40;;;2.58;;
22005;SDS011;11167;46.988;15.470;2023-04-29T08:38:20;4.25;;;2.70;;
22005;SDS011;11167;46.988;15.470;2023-04-29T08:40:21;3.33;;;2.40;;
22005;SDS011;11167;46.988;15.470;2023-04-29T08:42:32;3.70;;;2.55;;
22005;SDS011;11167;46.988;15.470;2023-04-29T08:44:35;3.40;;;2.22;;
22005;SDS011;11167;46.988;15.470;2023-04-29T08:46:38;3.10;;;2.50;;
22005;SDS011;11167;46.988;15.470;2023-04-29T08:48:41;3.58;;;2.40;;
22005;SDS011;11167;46.988;15.470;2023-04-29T08:50:42;3.17;;;2.20;;
22005;SDS011;11167;46.988;15.470;2023-04-29T08:52:43;2.75;;;1.90;;
22005;SDS011;11167;46.988;15.470;2023-04-29T08:54:45;3.35;;;2.45;;
22005;SDS011;11167;46.988;15.470;2023-04-29T08:56:46;3.50;;;2.52;;
22005;SDS011;11167;46.988;15.470;2023-04-29T08:58:48;1.85;;;1.60;;
22005;SDS011;11167;46.988;15.470;2023-04-29T09:00:52;2.40;;;2.02;;
22005;SDS011;11167;46.988;15.470;2023-04-29T09:02:54;2.02;;;1.67;;
22005;SDS011;11167;46.988;15.470;2023-04-29T09:05:03;3.12;;;2.10;;
22005;SDS011;11167;46.988;15.470;2023-04-29T09:07:08;2.20;;;1.85;;
22005;SDS011;11167;46.988;15.470;2023-04-29T09:09:12;3.37;;;2.05;;
22005;SDS011;11167;46.988;15.470;2023-04-29T09:11:14;2.77;;;2.00;;
22005;SDS011;11167;46.988;15.470;2023-04-29T09:13:29;2.02;;;1.75;;
22005;SDS011;11167;46.988;15.470;2023-04-29T09:15:40;2.27;;;1.82;;
22005;SDS011;11167;46.988;15.470;2023-04-29T09:19:46;2.40;;;1.87;;
22005;SDS011;11167;46.988;15.470;2023-04-29T09:21:52;2.00;;;1.60;;
22005;SDS011;11167;46.988;15.470;2023-04-29T09:23:57;1.92;;;1.70;;
22005;SDS011;11167;46.988;15.470;2023-04-29T09:26:00;2.17;;;1.70;;
22005;SDS011;11167;46.988;15.470;2023-04-29T09:28:13;2.35;;;1.80;;
22005;SDS011;11167;46.988;15.470;2023-04-29T09:30:18;2.72;;;1.67;;
22005;SDS011;11167;46.988;15.470;2023-04-29T09:32:20;1.65;;;1.50;;
22005;SDS011;11167;46.988;15.470;2023-04-29T09:34:31;1.85;;;1.60;;
22005;SDS011;11167;46.988;15.470;2023-04-29T09:36:46;2.17;;;1.50;;
22005;SDS011;11167;46.988;15.470;2023-04-29T09:38:55;2.17;;;1.52;;
22005;SDS011;11167;46.988;15.470;2023-04-29T09:40:57;1.52;;;1.40;;
22005;SDS011;11167;46.988;15.470;2023-04-29T09:42:59;2.20;;;1.50;;
22005;SDS011;11167;46.988;15.470;2023-04-29T09:45:00;1.70;;;1.60;;
22005;SDS011;11167;46.988;15.470;2023-04-29T09:47:06;3.00;;;1.60;;
22005;SDS011;11167;46.988;15.470;2023-04-29T09:49:21;1.70;;;1.32;;
22005;SDS011;11167;46.988;15.470;2023-04-29T09:51:26;1.85;;;1.40;;
22005;SDS011;11167;46.988;15.470;2023-04-29T09:53:28;1.50;;;1.40;;
22005;SDS011;11167;46.988;15.470;2023-04-29T09:55:31;1.82;;;1.47;;
22005;SDS011;11167;46.988;15.470;2023-04-29T09:57:38;2.60;;;1.70;;
22005;SDS011;11167;46.988;15.470;2023-04-29T09:59:44;2.62;;;1.60;;
22005;SDS011;11167;46.988;15.470;2023-04-29T10:01:59;1.72;;;1.42;;
22005;SDS011;11167;46.988;15.470;2023-04-29T10:03:56;1.95;;;1.20;;
22005;SDS011;11167;46.988;15.470;2023-04-29T10:05:57;1.85;;;1.50;;
22005;SDS011;11167;46.988;15.470;2023-04-29T10:07:59;1.57;;;1.35;;
22005;SDS011;11167;46.988;15.470;2023-04-29T10:10:01;1.62;;;1.42;;
22005;SDS011;11167;46.988;15.470;2023-04-29T10:12:06;1.10;;;1.00;;
22005;SDS011;11167;46.988;15.470;2023-04-29T10:14:09;1.98;;;1.30;;
22005;SDS011;11167;46.988;15.470;2023-04-29T10:16:18;1.40;;;1.10;;
22005;SDS011;11167;46.988;15.470;2023-04-29T10:18:29;1.22;;;1.10;;
22005;SDS011;11167;46.988;15.470;2023-04-29T10:20:36;1.07;;;0.90;;
22005;SDS011;11167;46.988;15.470;2023-04-29T10:24:46;0.80;;;0.80;;
22005;SDS011;11167;46.988;15.470;2023-04-29T10:26:50;1.15;;;0.90;;
22005;SDS011;11167;46.988;15.470;2023-04-29T10:28:53;1.80;;;1.02;;
22005;SDS011;11167;46.988;15.470;2023-04-29T10:30:56;1.32;;;1.10;;
22005;SDS011;11167;46.988;15.470;2023-04-29T10:32:59;2.00;;;1.10;;
22005;SDS011;11167;46.988;15.470;2023-04-29T10:35:01;1.60;;;1.05;;
22005;SDS011;11167;46.988;15.470;2023-04-29T10:37:11;1.00;;;0.90;;
22005;SDS011;11167;46.988;15.470;2023-04-29T10:39:15;1.20;;;0.90;;
22005;SDS011;11167;46.988;15.470;2023-04-29T10:41:24;0.98;;;0.88;;
22005;SDS011;11167;46.988;15.470;2023-04-29T10:43:32;1.25;;;0.90;;
22005;SDS011;11167;46.988;15.470;2023-04-29T10:45:33;0.95;;;0.90;;
22005;SDS011;11167;46.988;15.470;2023-04-29T10:47:35;1.02;;;0.93;;
22005;SDS011;11167;46.988;15.470;2023-04-29T10:49:36;1.98;;;1.22;;
22005;SDS011;11167;46.988;15.470;2023-04-29T10:51:41;1.70;;;1.00;;
22005;SDS011;11167;46.988;15.470;2023-04-29T10:56:09;1.37;;;1.10;;
22005;SDS011;11167;46.988;15.470;2023-04-29T11:00:36;1.30;;;1.02;;
22005;SDS011;11167;46.988;15.470;2023-04-29T11:02:38;1.15;;;1.05;;
22005;SDS011;11167;46.988;15.470;2023-04-29T11:07:04;1.17;;;1.00;;
22005;SDS011;11167;46.988;15.470;2023-04-29T11:12:28;1.57;;;1.10;;
22005;SDS011;11167;46.988;15.470;2023-04-29T11:13:44;1.27;;;1.10;;
22005;SDS011;11167;46.988;15.470;2023-04-29T11:15:47;0.78;;;0.78;;
22005;SDS011;11167;46.988;15.470;2023-04-29T11:17:48;1.57;;;1.02;;
22005;SDS011;11167;46.988;15.470;2023-04-29T11:19:50;1.02;;;0.85;;
22005;SDS011;11167;46.988;15.470;2023-04-29T11:22:08;1.57;;;1.10;;
22005;SDS011;11167;46.988;15.470;2023-04-29T11:24:21;1.10;;;1.00;;
22005;SDS011;11167;46.988;15.470;2023-04-29T11:26:22;1.32;;;1.10;;
22005;SDS011;11167;46.988;15.470;2023-04-29T11:28:24;1.55;;;1.07;;
22005;SDS011;11167;46.988;15.470;2023-04-29T11:30:27;1.40;;;1.10;;
22005;SDS011;11167;46.988;15.470;2023-04-29T11:32:30;1.40;;;1.00;;
22005;SDS011;11167;46.988;15.470;2023-04-29T11:34:33;1.10;;;1.00;;
22005;SDS011;11167;46.988;15.470;2023-04-29T11:36:35;1.27;;;1.00;;
22005;SDS011;11167;46.988;15.470;2023-04-29T11:38:37;1.00;;;0.90;;
22005;SDS011;11167;46.988;15.470;2023-04-29T11:40:40;1.15;;;0.85;;
22005;SDS011;11167;46.988;15.470;2023-04-29T11:42:43;1.07;;;0.98;;
22005;SDS011;11167;46.988;15.470;2023-04-29T11:44:46;0.78;;;0.78;;
22005;SDS011;11167;46.988;15.470;2023-04-29T11:47:00;1.00;;;0.90;;
22005;SDS011;11167;46.988;15.470;2023-04-29T11:49:04;0.68;;;0.68;;
22005;SDS011;11167;46.988;15.470;2023-04-29T11:51:05;0.80;;;0.80;;
22005;SDS011;11167;46.988;15.470;2023-04-29T11:53:06;1.70;;;1.00;;
22005;SDS011;11167;46.988;15.470;2023-04-29T11:55:08;1.10;;;1.00;;
22005;SDS011;11167;46.988;15.470;2023-04-29T11:57:10;0.80;;;0.80;;
22005;SDS011;11167;46.988;15.470;2023-04-29T11:59:11;1.00;;;0.90;;
22005;SDS011;11167;46.988;15.470;2023-04-29T12:01:12;0.80;;;0.80;;
22005;SDS011;11167;46.988;15.470;2023-04-29T12:03:13;1.17;;;0.90;;
22005;SDS011;11167;46.988;15.470;2023-04-29T12:05:15;0.98;;;0.85;;
22005;SDS011;11167;46.988;15.470;2023-04-29T12:07:18;0.78;;;0.70;;
22005;SDS011;11167;46.988;15.470;2023-04-29T12:09:19;1.10;;;0.80;;
22005;SDS011;11167;46.988;15.470;2023-04-29T12:11:21;1.47;;;0.90;;
22005;SDS011;11167;46.988;15.470;2023-04-29T12:13:26;0.80;;;0.70;;
22005;SDS011;11167;46.988;15.470;2023-04-29T12:15:29;1.05;;;0.75;;
22005;SDS011;11167;46.988;15.470;2023-04-29T12:17:32;0.85;;;0.85;;
22005;SDS011;11167;46.988;15.470;2023-04-29T12:19:33;0.60;;;0.60;;
22005;SDS011;11167;46.988;15.470;2023-04-29T12:21:46;1.02;;;0.75;;
22005;SDS011;11167;46.988;15.470;2023-04-29T12:23:42;0.70;;;0.65;;
22005;SDS011;11167;46.988;15.470;2023-04-29T12:25:50;0.75;;;0.70;;
22005;SDS011;11167;46.988;15.470;2023-04-29T12:27:57;0.78;;;0.60;;
22005;SDS011;11167;46.988;15.470;2023-04-29T12:29:57;0.98;;;0.62;;
22005;SDS011;11167;46.988;15.470;2023-04-29T12:31:59;0.62;;;0.50;;
22005;SDS011;11167;46.988;15.470;2023-04-29T12:34:02;0.72;;;0.50;;
22005;SDS011;11167;46.988;15.470;2023-04-29T12:36:14;0.40;;;0.40;;
22005;SDS011;11167;46.988;15.470;2023-04-29T12:38:09;0.70;;;0.50;;
22005;SDS011;11167;46.988;15.470;2023-04-29T12:40:13;0.68;;;0.55;;
22005;SDS011;11167;46.988;15.470;2023-04-29T12:42:16;0.47;;;0.40;;